createdAt,value
2022-12-25T00:01:27.341Z,41.60
2022-12-25T00:03:57.646Z,34.70
2022-12-25T00:06:26.463Z,44.42
2022-12-25T00:08:55.359Z,36.65
2022-12-25T00:11:24.284Z,43.45
2022-12-25T00:13:52.810Z,37.50
2022-12-25T00:16:27.374Z,42.75
2022-12-25T00:18:57.207Z,38.50
2022-12-25T00:21:25.963Z,46.13
2022-12-25T00:23:57.264Z,38.67
2022-12-25T00:26:27.977Z,49.22
2022-12-25T00:28:58.641Z,46.45
2022-12-25T00:31:30.416Z,47.30
2022-12-25T00:36:26.540Z,56.10
2022-12-25T00:38:54.698Z,55.55
2022-12-25T00:41:43.761Z,29.15
2022-12-25T00:44:14.134Z,32.53
2022-12-25T00:46:42.974Z,32.53
2022-12-25T00:49:12.859Z,31.23
2022-12-25T00:51:41.321Z,32.85
2022-12-25T00:54:10.053Z,35.75
2022-12-25T00:56:38.532Z,34.55
2022-12-25T00:59:06.899Z,40.72
2022-12-25T01:01:35.353Z,40.45
2022-12-25T01:04:04.170Z,47.38
2022-12-25T01:06:33.068Z,40.45
2022-12-25T01:09:19.755Z,38.58
2022-12-25T01:11:48.121Z,40.78
2022-12-25T01:14:16.669Z,43.60
2022-12-25T01:16:45.565Z,40.58
2022-12-25T01:19:13.792Z,42.58
2022-12-25T01:21:41.949Z,43.65
2022-12-25T01:24:10.995Z,44.17
2022-12-25T01:26:39.334Z,48.25
2022-12-25T01:29:07.909Z,54.20
2022-12-25T01:31:36.527Z,50.40
2022-12-25T01:34:04.564Z,46.80
2022-12-25T01:36:32.674Z,48.17
2022-12-25T01:39:01.693Z,49.40
2022-12-25T01:41:30.781Z,43.17
2022-12-25T01:44:16.506Z,45.72
2022-12-25T01:46:45.560Z,45.72
2022-12-25T01:49:23.737Z,41.70
2022-12-25T01:52:03.527Z,45.78
2022-12-25T01:54:38.306Z,36.15
2022-12-25T01:57:15.160Z,36.42
2022-12-25T01:59:44.266Z,45.38
2022-12-25T02:02:13.086Z,38.40
2022-12-25T02:04:51.717Z,44.10
2022-12-25T02:07:24.218Z,38.40
2022-12-25T02:09:53.759Z,35.70
2022-12-25T02:12:30.111Z,28.63
2022-12-25T02:15:21.066Z,24.30
2022-12-25T02:18:39.316Z,21.17
2022-12-25T02:21:12.064Z,20.08
2022-12-25T02:24:01.426Z,23.75
2022-12-25T02:27:25.210Z,23.27
2022-12-25T02:30:11.573Z,22.17
2022-12-25T02:32:48.381Z,20.15
2022-12-25T02:35:31.272Z,24.20
2022-12-25T02:38:25.098Z,25.90
2022-12-25T02:40:59.489Z,23.50
2022-12-25T02:43:57.608Z,24.80
2022-12-25T02:46:48.069Z,26.75
2022-12-25T02:49:42.370Z,27.02
2022-12-25T02:52:39.107Z,24.65
2022-12-25T02:55:35.494Z,24.95
2022-12-25T02:58:29.052Z,24.83
2022-12-25T03:01:24.986Z,23.98
2022-12-25T03:04:17.096Z,21.25
2022-12-25T03:07:05.747Z,22.40
2022-12-25T03:10:05.294Z,23.95
2022-12-25T03:12:56.047Z,24.75
2022-12-25T03:15:43.836Z,20.13
2022-12-25T03:18:20.047Z,23.83
2022-12-25T03:21:07.779Z,23.33
2022-12-25T03:23:58.734Z,25.00
2022-12-25T03:26:46.113Z,19.60
2022-12-25T03:29:34.902Z,23.23
2022-12-25T03:33:17.799Z,25.55
2022-12-25T03:36:12.205Z,24.63
2022-12-25T03:39:21.158Z,29.20
2022-12-25T03:42:19.725Z,31.38
2022-12-25T03:45:41.223Z,26.40
2022-12-25T03:48:46.944Z,26.33
2022-12-25T03:51:37.614Z,29.10
2022-12-25T03:54:28.546Z,27.85
2022-12-25T03:57:15.957Z,30.42
2022-12-25T04:00:02.693Z,29.75
2022-12-25T04:02:57.024Z,28.13
2022-12-25T04:05:55.006Z,30.08
2022-12-25T04:08:42.135Z,27.42
2022-12-25T04:11:29.470Z,28.17
2022-12-25T04:14:16.433Z,26.42
2022-12-25T04:17:06.536Z,25.95
2022-12-25T04:19:54.076Z,28.58
2022-12-25T04:22:40.845Z,24.77
2022-12-25T04:25:27.658Z,28.15
2022-12-25T04:28:21.373Z,28.50
2022-12-25T04:31:08.670Z,25.45
2022-12-25T04:33:56.191Z,26.20
2022-12-25T04:36:24.462Z,28.60
2022-12-25T04:38:53.052Z,26.52
2022-12-25T04:41:21.107Z,26.58
2022-12-25T04:43:49.526Z,21.33
2022-12-25T04:46:18.115Z,28.30
2022-12-25T04:48:46.530Z,25.70
2022-12-25T04:51:18.771Z,28.85
2022-12-25T04:53:49.086Z,28.63
2022-12-25T04:56:18.152Z,27.95
2022-12-25T04:58:48.267Z,29.85
2022-12-25T05:01:17.228Z,28.92
2022-12-25T05:03:45.274Z,24.55
2022-12-25T05:06:13.706Z,31.05
2022-12-25T05:08:42.236Z,33.00
2022-12-25T05:11:14.303Z,33.67
2022-12-25T05:13:42.705Z,31.60
2022-12-25T05:16:18.922Z,38.60
2022-12-25T05:18:51.969Z,39.70
2022-12-25T05:21:20.826Z,36.47
2022-12-25T05:23:53.569Z,38.80
2022-12-25T05:26:25.760Z,35.22
2022-12-25T05:28:55.546Z,32.85
2022-12-25T05:31:24.563Z,35.53
2022-12-25T05:33:53.672Z,33.20
2022-12-25T05:36:22.012Z,33.42
2022-12-25T05:38:50.904Z,32.53
2022-12-25T05:41:18.997Z,31.02
2022-12-25T05:43:47.365Z,31.17
2022-12-25T05:46:15.650Z,33.13
2022-12-25T05:48:44.442Z,31.40
2022-12-25T05:51:14.997Z,36.42
2022-12-25T05:53:44.953Z,37.35
2022-12-25T05:56:13.240Z,38.30
2022-12-25T05:58:41.817Z,42.70
2022-12-25T06:01:21.267Z,48.15
2022-12-25T06:03:49.412Z,41.70
2022-12-25T06:06:17.571Z,41.55
2022-12-25T06:08:45.884Z,41.75
2022-12-25T06:11:15.184Z,40.88
2022-12-25T06:13:43.746Z,45.78
2022-12-25T06:16:12.978Z,41.53
2022-12-25T06:18:45.564Z,46.35
2022-12-25T06:21:16.191Z,48.05
2022-12-25T06:23:44.925Z,39.13
2022-12-25T06:26:17.086Z,41.20
2022-12-25T06:28:46.693Z,40.58
2022-12-25T06:31:19.627Z,40.33
2022-12-25T06:33:49.173Z,32.58
2022-12-25T06:36:24.597Z,35.60
2022-12-25T06:38:54.118Z,37.10
2022-12-25T06:41:26.174Z,36.85
2022-12-25T06:43:58.789Z,46.92
2022-12-25T06:46:30.640Z,38.65
2022-12-25T06:49:00.642Z,37.28
2022-12-25T06:51:32.387Z,41.75
2022-12-25T06:56:34.205Z,35.97
2022-12-25T06:59:09.499Z,35.65
2022-12-25T07:01:47.312Z,44.08
2022-12-25T07:04:32.272Z,35.40
2022-12-25T07:07:08.069Z,44.13
2022-12-25T07:09:39.433Z,50.22
2022-12-25T07:12:16.937Z,43.15
2022-12-25T07:14:49.060Z,43.03
2022-12-25T07:17:18.446Z,47.88
2022-12-25T07:19:50.306Z,45.85
2022-12-25T07:24:47.231Z,47.33
2022-12-25T07:27:15.544Z,44.70
2022-12-25T07:29:43.832Z,45.47
2022-12-25T07:32:12.321Z,45.67
2022-12-25T07:34:40.614Z,45.22
2022-12-25T07:37:09.818Z,41.50
2022-12-25T07:39:38.718Z,44.00
2022-12-25T07:42:08.878Z,40.53
2022-12-25T07:44:39.159Z,39.42
2022-12-25T07:47:08.584Z,40.78
2022-12-25T07:49:36.966Z,34.38
2022-12-25T07:52:05.556Z,38.10
2022-12-25T07:54:34.473Z,38.08
2022-12-25T07:57:02.691Z,40.20
2022-12-25T07:59:32.397Z,34.92
2022-12-25T08:02:01.498Z,42.35
2022-12-25T08:04:30.090Z,38.63
2022-12-25T08:06:58.416Z,40.50
2022-12-25T08:09:27.020Z,43.97
2022-12-25T08:11:55.205Z,37.70
2022-12-25T08:14:23.495Z,47.90
2022-12-25T08:16:51.854Z,42.65
2022-12-25T08:19:20.419Z,43.45
2022-12-25T08:21:48.780Z,49.15
2022-12-25T08:24:17.265Z,53.83
2022-12-25T08:26:45.826Z,50.63
2022-12-25T08:29:14.921Z,54.85
2022-12-25T08:31:46.414Z,58.20
2022-12-25T08:34:15.811Z,51.58
2022-12-25T08:36:43.893Z,45.45
2022-12-25T08:39:12.116Z,56.40
2022-12-25T08:41:40.537Z,50.00
2022-12-25T08:44:11.840Z,57.75
2022-12-25T08:46:40.888Z,51.03
2022-12-25T08:49:09.094Z,63.38
2022-12-25T08:51:37.405Z,67.78
2022-12-25T08:54:08.347Z,54.28
2022-12-25T08:56:37.351Z,59.17
2022-12-25T08:59:05.796Z,52.70
2022-12-25T09:01:34.650Z,64.75
2022-12-25T09:04:03.293Z,63.92
2022-12-25T09:06:34.179Z,60.05
2022-12-25T09:09:03.136Z,63.30
2022-12-25T09:11:31.429Z,63.20
2022-12-25T09:14:00.424Z,51.08
2022-12-25T09:16:30.049Z,54.63
2022-12-25T09:18:58.639Z,48.25
2022-12-25T09:21:27.264Z,53.90
2022-12-25T09:23:56.236Z,51.70
2022-12-25T09:26:24.938Z,47.08
2022-12-25T09:28:53.380Z,48.75
2022-12-25T09:31:23.491Z,48.85
2022-12-25T09:33:56.173Z,48.53
2022-12-25T09:36:26.053Z,47.67
2022-12-25T09:38:54.168Z,43.88
2022-12-25T09:41:40.392Z,38.55
2022-12-25T09:44:22.712Z,41.80
2022-12-25T09:47:23.919Z,45.75
2022-12-25T09:50:12.487Z,48.63
2022-12-25T09:53:00.976Z,44.63
2022-12-25T09:55:34.587Z,46.90
2022-12-25T09:58:12.996Z,46.97
2022-12-25T10:00:56.080Z,45.30
2022-12-25T10:03:31.268Z,47.80
2022-12-25T10:06:16.709Z,47.92
2022-12-25T10:09:02.605Z,47.85
2022-12-25T10:12:08.823Z,37.85
2022-12-25T10:15:14.119Z,44.90
2022-12-25T10:18:22.732Z,41.53
2022-12-25T10:20:57.704Z,40.80
2022-12-25T10:23:37.744Z,36.28
2022-12-25T10:26:25.401Z,42.33
2022-12-25T10:29:14.123Z,41.50
2022-12-25T10:31:47.089Z,42.05
2022-12-25T10:34:16.364Z,42.80
2022-12-25T10:36:47.996Z,44.10
2022-12-25T10:39:25.144Z,42.83
2022-12-25T10:42:56.001Z,43.97
2022-12-25T10:45:24.579Z,41.50
2022-12-25T10:48:07.457Z,39.40
2022-12-25T10:50:44.185Z,44.80
2022-12-25T10:53:27.739Z,40.78
2022-12-25T10:56:02.507Z,49.97
2022-12-25T10:58:32.210Z,67.07
2022-12-25T11:01:10.612Z,66.05
2022-12-25T11:03:51.398Z,62.03
2022-12-25T11:06:38.222Z,64.78
2022-12-25T11:09:07.974Z,68.45
2022-12-25T11:11:38.355Z,76.15
2022-12-25T11:14:06.837Z,68.72
2022-12-25T11:16:40.323Z,59.72
2022-12-25T11:19:22.231Z,48.85
2022-12-25T11:22:00.825Z,49.72
2022-12-25T11:24:33.003Z,51.85
2022-12-25T11:27:06.616Z,46.95
2022-12-25T11:29:59.702Z,49.78
2022-12-25T11:32:55.581Z,49.45
2022-12-25T11:35:31.335Z,49.33
2022-12-25T11:37:59.691Z,49.63
2022-12-25T11:40:58.552Z,52.00
2022-12-25T11:43:52.295Z,50.80
2022-12-25T11:46:31.630Z,46.90
2022-12-25T11:49:11.830Z,40.25
2022-12-25T11:51:44.583Z,40.17
2022-12-25T11:54:46.140Z,46.63
2022-12-25T11:57:14.315Z,55.30
2022-12-25T11:59:57.319Z,58.78
2022-12-25T12:03:13.383Z,65.22
2022-12-25T12:06:14.986Z,51.65
2022-12-25T12:08:44.289Z,53.00
2022-12-25T12:11:25.489Z,51.50
2022-12-25T12:14:21.163Z,49.33
2022-12-25T12:16:49.526Z,54.63
2022-12-25T12:19:31.728Z,52.88
2022-12-25T12:22:04.111Z,47.58
2022-12-25T12:24:42.000Z,53.88
2022-12-25T12:27:40.717Z,53.13
2022-12-25T12:30:31.886Z,49.78
2022-12-25T12:33:05.199Z,49.33
2022-12-25T12:35:38.651Z,55.03
2022-12-25T12:38:20.110Z,48.55
2022-12-25T12:41:05.252Z,46.83
2022-12-25T12:44:01.046Z,50.95
2022-12-25T12:46:37.036Z,53.92
2022-12-25T12:49:32.476Z,52.85
2022-12-25T12:52:33.126Z,53.28
2022-12-25T12:55:14.541Z,63.78
2022-12-25T12:57:43.284Z,62.42
2022-12-25T13:00:21.410Z,72.95
2022-12-25T13:03:10.803Z,67.85
2022-12-25T13:05:41.545Z,59.05
2022-12-25T13:08:28.480Z,63.47
2022-12-25T13:11:11.109Z,66.15
2022-12-25T13:13:45.801Z,88.15
2022-12-25T13:16:27.227Z,75.40
2022-12-25T13:18:57.440Z,71.20
2022-12-25T13:21:30.586Z,79.50
2022-12-25T13:24:09.059Z,80.03
2022-12-25T13:26:39.363Z,78.38
2022-12-25T13:29:18.421Z,66.22
2022-12-25T13:31:46.944Z,61.53
2022-12-25T13:34:37.613Z,64.57
2022-12-25T13:37:15.279Z,55.80
2022-12-25T13:40:07.293Z,57.53
2022-12-25T13:42:42.469Z,55.88
2022-12-25T13:45:13.860Z,50.40
2022-12-25T13:47:49.903Z,54.20
2022-12-25T13:50:33.448Z,52.78
2022-12-25T13:53:14.106Z,52.72
2022-12-25T13:55:46.288Z,50.42
2022-12-25T13:58:26.427Z,46.40
2022-12-25T14:00:59.210Z,50.35
2022-12-25T14:03:42.883Z,47.63
2022-12-25T14:06:30.733Z,50.55
2022-12-25T14:08:59.890Z,50.78
2022-12-25T14:11:31.763Z,48.17
2022-12-25T14:14:27.603Z,53.70
2022-12-25T14:16:58.740Z,52.95
2022-12-25T14:19:33.620Z,50.22
2022-12-25T14:22:16.429Z,65.25
2022-12-25T14:24:44.764Z,48.67
2022-12-25T14:27:27.857Z,53.55
2022-12-25T14:30:00.858Z,48.13
2022-12-25T14:32:39.131Z,52.45
2022-12-25T14:35:12.561Z,53.70
2022-12-25T14:37:43.659Z,42.95
2022-12-25T14:40:32.559Z,47.85
2022-12-25T14:43:19.747Z,46.33
2022-12-25T14:46:03.111Z,57.67
2022-12-25T14:48:33.376Z,37.95
2022-12-25T14:51:18.115Z,47.78
2022-12-25T14:54:02.892Z,53.88
2022-12-25T14:56:39.398Z,59.33
2022-12-25T14:59:16.706Z,57.95
2022-12-25T15:01:49.816Z,52.50
2022-12-25T15:04:20.874Z,63.05
2022-12-25T15:07:08.783Z,57.92
2022-12-25T15:09:38.037Z,56.47
2022-12-25T15:12:06.682Z,61.60
2022-12-25T15:14:38.524Z,52.78
2022-12-25T15:17:07.030Z,64.63
2022-12-25T15:19:38.789Z,59.33
2022-12-25T15:22:10.290Z,57.38
2022-12-25T15:24:38.536Z,58.67
2022-12-25T15:27:18.539Z,58.80
2022-12-25T15:32:35.826Z,50.47
2022-12-25T15:35:07.984Z,51.83
2022-12-25T15:37:37.580Z,58.83
2022-12-25T15:40:10.701Z,63.45
2022-12-25T15:42:39.823Z,60.22
2022-12-25T15:45:27.945Z,55.60
2022-12-25T15:47:57.226Z,56.70
2022-12-25T15:50:25.575Z,59.97
2022-12-25T15:52:53.790Z,65.78
2022-12-25T15:55:22.431Z,66.15
2022-12-25T15:57:54.739Z,64.55
2022-12-25T16:00:25.989Z,73.97
2022-12-25T16:02:54.682Z,72.90
2022-12-25T16:05:23.480Z,61.33
2022-12-25T16:07:52.385Z,63.03
2022-12-25T16:10:23.179Z,59.30
2022-12-25T16:12:51.817Z,63.30
2022-12-25T16:15:20.155Z,60.17
2022-12-25T16:17:48.480Z,66.65
2022-12-25T16:20:17.304Z,63.90
2022-12-25T16:22:45.646Z,66.32
2022-12-25T16:25:17.037Z,61.55
2022-12-25T16:27:45.560Z,58.47
2022-12-25T16:30:17.722Z,68.32
2022-12-25T16:32:50.667Z,62.40
2022-12-25T16:35:19.232Z,55.47
2022-12-25T16:37:48.405Z,69.13
2022-12-25T16:40:18.495Z,67.00
2022-12-25T16:42:47.939Z,70.20
2022-12-25T16:45:16.953Z,71.20
2022-12-25T16:47:46.578Z,78.38
2022-12-25T16:50:17.078Z,75.93
2022-12-25T16:52:45.963Z,66.28
2022-12-25T16:55:14.707Z,77.65
2022-12-25T16:57:48.250Z,81.45
2022-12-25T17:00:18.805Z,74.88
2022-12-25T17:02:49.407Z,76.95
2022-12-25T17:05:21.549Z,67.28
2022-12-25T17:07:50.851Z,64.38
2022-12-25T17:10:20.143Z,68.88
2022-12-25T17:12:49.222Z,73.00
2022-12-25T17:15:18.437Z,66.85
2022-12-25T17:17:47.010Z,68.72
2022-12-25T17:20:16.201Z,70.40
2022-12-25T17:22:44.905Z,69.53
2022-12-25T17:25:13.433Z,64.55
2022-12-25T17:27:43.484Z,67.75
2022-12-25T17:30:12.101Z,59.88
2022-12-25T17:32:40.765Z,58.60
2022-12-25T17:35:14.248Z,56.55
2022-12-25T17:37:43.125Z,55.92
2022-12-25T17:40:12.522Z,55.63
2022-12-25T17:42:41.809Z,49.15
2022-12-25T17:45:12.244Z,47.67
2022-12-25T17:47:41.108Z,43.38
2022-12-25T17:50:13.208Z,46.33
2022-12-25T17:55:10.905Z,46.35
2022-12-25T17:57:41.260Z,46.65
2022-12-25T18:00:11.913Z,41.42
2022-12-25T18:02:47.595Z,39.42
2022-12-25T18:05:18.471Z,32.53
2022-12-25T18:07:48.489Z,30.90
2022-12-25T18:10:17.940Z,37.42
2022-12-25T18:12:47.826Z,34.85
2022-12-25T18:15:19.485Z,35.75
2022-12-25T18:17:49.234Z,47.17
2022-12-25T18:20:18.966Z,33.75
2022-12-25T18:22:48.770Z,44.03
2022-12-25T18:25:18.399Z,34.92
2022-12-25T18:27:48.242Z,35.67
2022-12-25T18:30:17.689Z,32.17
2022-12-25T18:32:47.025Z,33.15
2022-12-25T18:35:15.699Z,39.58
2022-12-25T18:37:44.637Z,39.25
2022-12-25T18:40:13.358Z,40.25
2022-12-25T18:42:43.210Z,40.95
2022-12-25T18:45:16.341Z,37.38
2022-12-25T18:47:47.834Z,41.10
2022-12-25T18:50:16.885Z,41.75
2022-12-25T18:52:47.808Z,34.00
2022-12-25T18:55:20.091Z,34.13
2022-12-25T18:57:50.205Z,34.22
2022-12-25T19:00:19.510Z,30.27
2022-12-25T19:02:49.116Z,37.78
2022-12-25T19:05:18.077Z,37.67
2022-12-25T19:07:46.570Z,39.05
2022-12-25T19:10:16.215Z,34.83
2022-12-25T19:12:44.986Z,36.33
2022-12-25T19:15:14.212Z,38.95
2022-12-25T19:17:43.842Z,43.03
2022-12-25T19:20:14.100Z,37.08
2022-12-25T19:22:44.096Z,33.97
2022-12-25T19:25:14.786Z,37.60
2022-12-25T19:27:45.350Z,37.15
2022-12-25T19:30:14.630Z,34.35
2022-12-25T19:32:44.059Z,37.30
2022-12-25T19:35:12.661Z,33.05
2022-12-25T19:37:42.199Z,32.13
2022-12-25T19:40:14.814Z,34.03
2022-12-25T19:42:44.934Z,34.65
2022-12-25T19:45:14.847Z,32.33
2022-12-25T19:47:44.917Z,35.72
2022-12-25T19:50:13.910Z,31.45
2022-12-25T19:52:42.964Z,30.00
2022-12-25T19:55:11.928Z,30.65
2022-12-25T19:57:41.725Z,35.53
2022-12-25T20:00:12.340Z,36.42
2022-12-25T20:02:47.950Z,34.72
2022-12-25T20:05:18.198Z,35.70
2022-12-25T20:07:47.850Z,38.88
2022-12-25T20:10:17.464Z,33.47
2022-12-25T20:12:46.939Z,33.38
2022-12-25T20:15:16.318Z,31.05
2022-12-25T20:17:47.439Z,32.15
2022-12-25T20:20:16.658Z,33.53
2022-12-25T20:22:46.022Z,49.70
2022-12-25T20:25:15.592Z,52.85
2022-12-25T20:27:44.675Z,58.17
2022-12-25T20:30:15.353Z,37.03
2022-12-25T20:32:50.166Z,30.45
2022-12-25T20:35:19.886Z,28.92
2022-12-25T20:37:49.165Z,29.65
2022-12-25T20:40:18.150Z,32.30
2022-12-25T20:42:47.550Z,29.58
2022-12-25T20:45:16.045Z,34.65
2022-12-25T20:47:44.432Z,29.40
2022-12-25T20:50:13.079Z,34.58
2022-12-25T20:52:41.447Z,37.90
2022-12-25T20:55:10.755Z,34.58
2022-12-25T20:57:40.530Z,35.42
2022-12-25T21:00:10.688Z,32.83
2022-12-25T21:02:39.169Z,35.40
2022-12-25T21:05:11.790Z,35.00
2022-12-25T21:07:41.087Z,33.88
2022-12-25T21:10:13.483Z,31.52
2022-12-25T21:12:41.969Z,34.20
2022-12-25T21:15:15.327Z,30.38
2022-12-25T21:17:44.486Z,38.95
2022-12-25T21:20:13.102Z,41.88
2022-12-25T21:22:41.655Z,37.45
2022-12-25T21:25:14.011Z,40.58
2022-12-25T21:27:43.009Z,37.25
2022-12-25T21:30:17.650Z,35.22
2022-12-25T21:33:14.703Z,43.10
2022-12-25T21:35:45.692Z,42.42
2022-12-25T21:38:15.061Z,39.10
2022-12-25T21:40:43.842Z,42.63
2022-12-25T21:43:14.798Z,49.95
2022-12-25T21:45:44.592Z,46.47
2022-12-25T21:48:13.696Z,40.70
2022-12-25T21:51:00.617Z,41.05
2022-12-25T21:53:29.324Z,37.20
2022-12-25T21:56:03.086Z,37.83
2022-12-25T21:58:32.087Z,36.40
2022-12-25T22:01:04.586Z,41.30
2022-12-25T22:03:33.770Z,39.28
2022-12-25T22:06:22.013Z,41.17
2022-12-25T22:08:50.932Z,44.30
2022-12-25T22:11:40.248Z,43.53
2022-12-25T22:14:52.804Z,49.00
2022-12-25T22:17:47.501Z,45.33
2022-12-25T22:20:26.614Z,46.60
2022-12-25T22:22:55.398Z,38.22
2022-12-25T22:25:24.802Z,40.47
2022-12-25T22:27:53.963Z,41.72
2022-12-25T22:30:27.015Z,34.85
2022-12-25T22:33:04.015Z,34.75
2022-12-25T22:35:33.362Z,28.77
2022-12-25T22:38:02.502Z,38.55
2022-12-25T22:40:32.165Z,44.42
2022-12-25T22:43:01.496Z,35.97
2022-12-25T22:45:30.714Z,38.15
2022-12-25T22:47:59.688Z,35.75
2022-12-25T22:50:28.298Z,30.25
2022-12-25T22:52:57.301Z,35.78
2022-12-25T22:55:26.225Z,64.07
2022-12-25T22:57:58.760Z,50.60
2022-12-25T23:00:27.440Z,41.08
2022-12-25T23:02:56.471Z,32.00
2022-12-25T23:05:25.152Z,33.53
2022-12-25T23:07:53.581Z,35.10
2022-12-25T23:10:22.226Z,33.47
2022-12-25T23:13:12.921Z,32.85
2022-12-25T23:15:41.656Z,35.05
2022-12-25T23:18:31.874Z,25.77
2022-12-25T23:21:20.468Z,33.33
2022-12-25T23:24:08.053Z,40.15
2022-12-25T23:26:37.509Z,39.30
2022-12-25T23:29:25.022Z,40.60
2022-12-25T23:31:54.355Z,41.35
2022-12-25T23:34:23.444Z,38.58
2022-12-25T23:36:52.094Z,32.25
2022-12-25T23:39:20.545Z,30.05
2022-12-25T23:41:49.000Z,31.27
2022-12-25T23:44:17.878Z,30.25
2022-12-25T23:46:52.818Z,27.02
2022-12-25T23:49:24.709Z,36.85
2022-12-25T23:51:54.580Z,41.35
2022-12-25T23:54:33.208Z,43.63
2022-12-25T23:57:02.289Z,42.70
2022-12-25T23:59:31.822Z,40.80
